Terminal Aerodrome Forecast
Issued by NWS

Home | Current Version | Previous Version | Text Only | Print | Product List | Glossary On
Versions: 1 2 3 4 5 6 7 8 9 10 11 12 13 14
000
FTUS43 KLSX 301200 AAA
TAFUIN
TAF AMD
KUIN 301235Z 3013/0112 06008KT 1/4SM FG OVC002
     FM301600 06005KT 6SM BR SCT006 BKN015
     FM301800 10006KT P6SM SCT015 BKN250=

USA.gov is the U.S. government's official web portal to all federal, state and local government web resources and services.